Terry H — WDH9116 — position and weather

sailwx.info

Track history (hours):
 
Tides and Currents Weather Stations Pressure Air Temp Water Temp Dewpoint Dewpoint Depression Visibility Wind Speed Wind Dir Waves Ship Positions

Terry H

Owner: Enterprise Marine Services, LLC, San Antonio, TX. More information available from US FCC via Universal Licensing System and Coast Guard Vessel Documentation Center.

Last reported at 2018-Jan-12 15:00 UTC. Time now 2018-Jan-22 18:04 UTC.
Position N 30°04' W 093°20'.
Warning: this ship's position is 10 days out of date.

Length 210 m; draft 2.9 m.

Type: Towing. MMSI: 367614880.

Date/timePositionNaut miles runAvg speedWind from/ knotsBaromVisibWave heightAir tempDewpointWater temp
2018-Jan-12 15:00N 30°04' W 093°20'0 0.0
2018-Jan-12 14:30N 30°04' W 093°20'0 0.0
2018-Jan-12 14:00N 30°04' W 093°20'0 0.0
2018-Jan-12 13:30N 30°04' W 093°20'0 0.0
2018-Jan-12 13:00N 30°04' W 093°20'0 0.0
2018-Jan-12 12:30N 30°04' W 093°20'0 0.0
2018-Jan-12 12:00N 30°04' W 093°20'0 0.0
2018-Jan-12 11:30N 30°04' W 093°20'0 0.0
2018-Jan-12 11:00N 30°04' W 093°20'0 0.1
2018-Jan-12 10:30N 30°04' W 093°20'0 0.4
2018-Jan-12 10:00N 30°05' W 093°20'1 1.8
2018-Jan-12 09:30N 30°05' W 093°20'0 0.6
2018-Jan-12 09:00N 30°05' W 093°20'2 4.0
2018-Jan-12 08:30N 30°04' W 093°21'3 5.5
2018-Jan-12 08:00N 30°04' W 093°25'3 5.7
2018-Jan-12 07:30N 30°04' W 093°28'3 5.8
2018-Jan-12 07:00N 30°04' W 093°31'3 5.4
2018-Jan-12 06:30N 30°04' W 093°34'3 5.4
2018-Jan-12 05:59N 30°04' W 093°38'73 4.3
2018-Jan-11 12:54N 29°32' W 094°54'3 7.8
2018-Jan-11 12:30N 29°35' W 094°56'4 7.4
2018-Jan-11 12:00N 29°38' W 094°58'4 7.5
2018-Jan-11 11:30N 29°42' W 094°59'3 5.8
2018-Jan-11 11:00N 29°44' W 095°02'4 0.6
2018-Jan-11 05:04N 29°45' W 095°06'1 6.7
2018-Jan-11 04:57N 29°46' W 095°05'2 0.1
2018-Jan-10 03:05N 29°44' W 095°07'1 0.1
2018-Jan-09 20:09N 29°44' W 095°08'0 1.0
2018-Jan-09 19:58N 29°44' W 095°08'3 5.6
2018-Jan-09 19:30N 29°46' W 095°05'1 1.1
2018-Jan-09 18:15N 29°47' W 095°05'0 0.1
2018-Jan-09 17:53N 29°47' W 095°05'0 0.0
2018-Jan-09 17:27N 29°47' W 095°05'0 0.4
2018-Jan-09 16:59N 29°47' W 095°05'2 3.3
2018-Jan-09 16:30N 29°46' W 095°04'4 7.1
2018-Jan-09 15:59N 29°43' W 095°01'3 6.8
2018-Jan-09 15:30N 29°41' W 094°59'4 7.9
2018-Jan-09 15:00N 29°37' W 094°57'4 8.0
2018-Jan-09 14:30N 29°34' W 094°55'4 7.7
2018-Jan-09 14:01N 29°30' W 094°52'77 4.3
2018-Jan-08 19:58N 30°04' W 093°32'3 5.7
2018-Jan-08 19:26N 30°04' W 093°29'2 5.8
2018-Jan-08 19:00N 30°04' W 093°26'3 5.4
2018-Jan-08 18:30N 30°04' W 093°23'2 3.6
2018-Jan-08 18:00N 30°04' W 093°21'2 4.9
2018-Jan-08 17:31N 30°06' W 093°20'2 3.5
2018-Jan-08 17:01N 30°08' W 093°19'0 0.0
2018-Jan-08 16:31N 30°08' W 093°19'0 0.0
2018-Jan-08 16:01N 30°08' W 093°19'0 0.0
2018-Jan-08 15:31N 30°08' W 093°19'0 0.0
2018-Jan-08 15:00N 30°08' W 093°19'0 0.0
2018-Jan-08 14:31N 30°08' W 093°19'0 0.0
2018-Jan-08 14:00N 30°08' W 093°19'0 0.0
2018-Jan-08 13:31N 30°08' W 093°19'0 0.0
2018-Jan-08 13:00N 30°08' W 093°19'0 0.0
2018-Jan-08 12:31N 30°08' W 093°19'0 0.0
2018-Jan-08 12:01N 30°08' W 093°19'0 0.0
2018-Jan-08 11:31N 30°08' W 093°19'0 0.0
2018-Jan-08 11:01N 30°08' W 093°19'0 0.0
2018-Jan-08 10:31N 30°08' W 093°19'0 0.0
2018-Jan-08 10:01N 30°08' W 093°19'0 0.0
2018-Jan-08 09:30N 30°08' W 093°19'0 0.0
2018-Jan-08 09:01N 30°08' W 093°19'0 0.0
2018-Jan-08 08:30N 30°08' W 093°19'0 0.0
2018-Jan-08 08:01N 30°08' W 093°19'0 0.0
2018-Jan-08 07:30N 30°08' W 093°19'0 0.0
2018-Jan-08 07:00N 30°08' W 093°19'0 0.0
2018-Jan-08 06:30N 30°08' W 093°19'0 0.0
2018-Jan-08 06:01N 30°08' W 093°19'0 0.0
2018-Jan-08 05:30N 30°08' W 093°19'0 0.0
2018-Jan-08 05:01N 30°08' W 093°19'0 0.0
2018-Jan-08 04:30N 30°08' W 093°19'0 0.0
2018-Jan-08 04:00N 30°08' W 093°19'0 0.0
2018-Jan-08 03:31N 30°08' W 093°19'0 0.0
2018-Jan-08 03:00N 30°08' W 093°19'0 0.0
2018-Jan-08 02:30N 30°08' W 093°19'0 0.0
2018-Jan-08 02:01N 30°08' W 093°19'0 0.0
2018-Jan-08 01:31N 30°08' W 093°19'0 0.0
2018-Jan-08 01:01N 30°08' W 093°19'0 0.0
2018-Jan-08 00:30N 30°08' W 093°19'0 0.0
2018-Jan-08 00:00N 30°08' W 093°19'0 0.0
2018-Jan-07 23:30N 30°08' W 093°19'0 0.0
2018-Jan-07 23:00N 30°08' W 093°19'0 0.0
2018-Jan-07 22:31N 30°08' W 093°19'0 0.0
2018-Jan-07 22:01N 30°08' W 093°19'0 0.0
2018-Jan-07 21:30N 30°08' W 093°19'0 0.0
2018-Jan-07 21:01N 30°08' W 093°19'0 0.0
2018-Jan-07 20:30N 30°08' W 093°19'0 0.0
2018-Jan-07 20:01N 30°08' W 093°19'0 0.0
2018-Jan-07 19:30N 30°08' W 093°19'0 0.0
2018-Jan-07 19:01N 30°08' W 093°19'0 0.0
2018-Jan-07 18:31N 30°08' W 093°19'0 0.0
2018-Jan-07 18:00N 30°08' W 093°19'0 0.0
2018-Jan-07 17:30N 30°08' W 093°19'0 0.0
2018-Jan-07 17:01N 30°08' W 093°19'0 0.0
2018-Jan-07 16:30N 30°08' W 093°19'0 0.0
2018-Jan-07 16:01N 30°08' W 093°19'0 0.0
2018-Jan-07 15:30N 30°08' W 093°19'0 0.0
2018-Jan-07 15:00N 30°08' W 093°19'0 0.4
2018-Jan-07 14:30N 30°08' W 093°19'0 0.1
2018-Jan-07 14:01N 30°08' W 093°20'0 0.0
2018-Jan-07 13:31N 30°08' W 093°20'1 1.4
2018-Jan-07 13:00N 30°08' W 093°20'2 3.7
2018-Jan-07 12:30N 30°06' W 093°20'1 2.3
2018-Jan-07 12:00N 30°05' W 093°20'0 0.1
2018-Jan-07 11:31N 30°05' W 093°20'0 0.0
2018-Jan-07 11:00N 30°05' W 093°20'0 0.0
2018-Jan-07 10:31N 30°05' W 093°20'0 0.0
2018-Jan-07 10:01N 30°05' W 093°20'0 0.0
2018-Jan-07 09:30N 30°05' W 093°20'0 0.0
2018-Jan-07 09:00N 30°05' W 093°20'0 0.0
2018-Jan-07 08:30N 30°05' W 093°20'0 0.0
2018-Jan-07 08:00N 30°05' W 093°20'0 0.0
2018-Jan-07 07:30N 30°05' W 093°20'0 0.0
2018-Jan-07 07:00N 30°05' W 093°20'0 0.0
2018-Jan-07 06:30N 30°05' W 093°20'0 0.0
2018-Jan-07 06:00N 30°05' W 093°20'0 0.0
2018-Jan-07 05:30N 30°05' W 093°20'0 0.0
2018-Jan-07 05:00N 30°05' W 093°20'0 0.0
2018-Jan-07 04:30N 30°05' W 093°20'0 0.0
2018-Jan-07 04:01N 30°05' W 093°20'0 0.0
2018-Jan-07 03:30N 30°05' W 093°20'0 0.0
2018-Jan-07 03:00N 30°05' W 093°20'0 0.0
2018-Jan-07 02:31N 30°05' W 093°20'0 0.0
2018-Jan-07 02:00N 30°05' W 093°20'0 0.0
2018-Jan-07 01:31N 30°05' W 093°20'0 0.0
2018-Jan-07 00:30N 30°05' W 093°20'0 0.0
2018-Jan-07 00:00N 30°05' W 093°20'0 0.0
2018-Jan-06 23:30N 30°05' W 093°20'0 0.0
2018-Jan-06 23:00N 30°05' W 093°20'0 0.0
2018-Jan-06 22:30N 30°05' W 093°20'0 0.0
2018-Jan-06 22:00N 30°05' W 093°20'0 0.0
2018-Jan-06 21:31N 30°05' W 093°20'0 0.0
2018-Jan-06 21:01N 30°05' W 093°20'0 0.0
2018-Jan-06 20:30N 30°05' W 093°20'0 0.0
2018-Jan-06 20:00N 30°05' W 093°20'0 0.0
2018-Jan-06 19:30N 30°05' W 093°20'0 0.0
2018-Jan-06 19:00N 30°05' W 093°20'0 0.0
2018-Jan-06 18:30N 30°05' W 093°20'0 0.0
2018-Jan-06 18:00N 30°05' W 093°20'0 0.0
2018-Jan-06 17:30N 30°05' W 093°20'0 0.0
2018-Jan-06 17:01N 30°05' W 093°20'0 0.0
2018-Jan-06 16:30N 30°05' W 093°20'0 0.0
2018-Jan-06 16:01N 30°05' W 093°20'0 0.0
2018-Jan-06 15:30N 30°05' W 093°20'0 0.0
2018-Jan-06 15:00N 30°05' W 093°20'0 0.0
2018-Jan-06 14:30N 30°05' W 093°20'0 0.0
2018-Jan-06 14:00N 30°05' W 093°20'0 0.0
2018-Jan-06 13:30N 30°05' W 093°20'0 0.0
2018-Jan-06 13:00N 30°05' W 093°20'0 0.0
2018-Jan-06 12:31N 30°05' W 093°20'0 0.0
2018-Jan-06 12:00N 30°05' W 093°20'0 0.0
2018-Jan-06 11:30N 30°05' W 093°20'0 0.0
2018-Jan-06 11:00N 30°05' W 093°20'0 0.0
2018-Jan-06 10:30N 30°05' W 093°20'0 0.0
2018-Jan-06 10:00N 30°05' W 093°20'0 0.0
2018-Jan-06 09:30N 30°05' W 093°20'0 0.0
2018-Jan-06 09:01N 30°05' W 093°20'0 0.0
2018-Jan-06 08:30N 30°05' W 093°20'0 0.0
2018-Jan-06 08:00N 30°05' W 093°20'0 0.0
2018-Jan-06 07:30N 30°05' W 093°20'0 0.1
2018-Jan-06 07:00N 30°05' W 093°20'0 0.9
2018-Jan-06 06:31N 30°05' W 093°20'0 0.5
2018-Jan-06 06:01N 30°05' W 093°20'2 3.2
2018-Jan-06 05:31N 30°04' W 093°21'1 2.6
2018-Jan-06 05:00N 30°04' W 093°22'2 3.9
2018-Jan-06 04:30N 30°04' W 093°24'2 5.0
2018-Jan-06 04:00N 30°04' W 093°27'2 3.8
2018-Jan-06 03:30N 30°04' W 093°29'2 4.7
2018-Jan-06 03:00N 30°04' W 093°32'2 4.9
2018-Jan-06 02:30N 30°04' W 093°35'3 5.1
2018-Jan-06 02:00N 30°04' W 093°38'3 6.0
2018-Jan-06 01:26N 30°03' W 093°42'70 2.9
2018-Jan-05 01:43N 29°32' W 094°54'2 5.8
2018-Jan-05 01:19N 29°34' W 094°55'2 6.7
2018-Jan-05 01:00N 29°36' W 094°57'3 6.8
2018-Jan-05 00:30N 29°39' W 094°58'3 6.8
2018-Jan-05 00:00N 29°42' W 094°60'3 5.8
2018-Jan-04 23:28N 29°44' W 095°03'  
Track history (hours):
 
Tides and Currents Weather Stations Pressure Air Temp Water Temp Dewpoint Dewpoint Depression Visibility Wind Speed Wind Dir Waves Ship Positions

Terry H

Owner: Enterprise Marine Services, LLC, San Antonio, TX. More information available from US FCC via Universal Licensing System and Coast Guard Vessel Documentation Center.

Last reported at 2018-Jan-12 15:00 UTC. Time now 2018-Jan-22 18:04 UTC.
Position N 30°04' W 093°20'.
Warning: this ship's position is 10 days out of date.

Length 210 m; draft 2.9 m.

Type: Towing. MMSI: 367614880.

Date/timePositionNaut miles runAvg speedWind from/ knotsBaromVisibWave heightAir tempDewpointWater temp
2018-Jan-12 15:00N 30°04' W 093°20'0 0.0
2018-Jan-12 14:30N 30°04' W 093°20'0 0.0
2018-Jan-12 14:00N 30°04' W 093°20'0 0.0
2018-Jan-12 13:30N 30°04' W 093°20'0 0.0
2018-Jan-12 13:00N 30°04' W 093°20'0 0.0
2018-Jan-12 12:30N 30°04' W 093°20'0 0.0
2018-Jan-12 12:00N 30°04' W 093°20'0 0.0
2018-Jan-12 11:30N 30°04' W 093°20'0 0.0
2018-Jan-12 11:00N 30°04' W 093°20'0 0.1
2018-Jan-12 10:30N 30°04' W 093°20'0 0.4
2018-Jan-12 10:00N 30°05' W 093°20'1 1.8
2018-Jan-12 09:30N 30°05' W 093°20'0 0.6
2018-Jan-12 09:00N 30°05' W 093°20'2 4.0
2018-Jan-12 08:30N 30°04' W 093°21'3 5.5
2018-Jan-12 08:00N 30°04' W 093°25'3 5.7
2018-Jan-12 07:30N 30°04' W 093°28'3 5.8
2018-Jan-12 07:00N 30°04' W 093°31'3 5.4
2018-Jan-12 06:30N 30°04' W 093°34'3 5.4
2018-Jan-12 05:59N 30°04' W 093°38'73 4.3
2018-Jan-11 12:54N 29°32' W 094°54'3 7.8
2018-Jan-11 12:30N 29°35' W 094°56'4 7.4
2018-Jan-11 12:00N 29°38' W 094°58'4 7.5
2018-Jan-11 11:30N 29°42' W 094°59'3 5.8
2018-Jan-11 11:00N 29°44' W 095°02'4 0.6
2018-Jan-11 05:04N 29°45' W 095°06'1 6.7
2018-Jan-11 04:57N 29°46' W 095°05'2 0.1
2018-Jan-10 03:05N 29°44' W 095°07'1 0.1
2018-Jan-09 20:09N 29°44' W 095°08'0 1.0
2018-Jan-09 19:58N 29°44' W 095°08'3 5.6
2018-Jan-09 19:30N 29°46' W 095°05'1 1.1
2018-Jan-09 18:15N 29°47' W 095°05'0 0.1
2018-Jan-09 17:53N 29°47' W 095°05'0 0.0
2018-Jan-09 17:27N 29°47' W 095°05'0 0.4
2018-Jan-09 16:59N 29°47' W 095°05'2 3.3
2018-Jan-09 16:30N 29°46' W 095°04'4 7.1
2018-Jan-09 15:59N 29°43' W 095°01'3 6.8
2018-Jan-09 15:30N 29°41' W 094°59'4 7.9
2018-Jan-09 15:00N 29°37' W 094°57'4 8.0
2018-Jan-09 14:30N 29°34' W 094°55'4 7.7
2018-Jan-09 14:01N 29°30' W 094°52'77 4.3
2018-Jan-08 19:58N 30°04' W 093°32'3 5.7
2018-Jan-08 19:26N 30°04' W 093°29'2 5.8
2018-Jan-08 19:00N 30°04' W 093°26'3 5.4
2018-Jan-08 18:30N 30°04' W 093°23'2 3.6
2018-Jan-08 18:00N 30°04' W 093°21'2 4.9
2018-Jan-08 17:31N 30°06' W 093°20'2 3.5
2018-Jan-08 17:01N 30°08' W 093°19'0 0.0
2018-Jan-08 16:31N 30°08' W 093°19'0 0.0
2018-Jan-08 16:01N 30°08' W 093°19'0 0.0
2018-Jan-08 15:31N 30°08' W 093°19'0 0.0
2018-Jan-08 15:00N 30°08' W 093°19'0 0.0
2018-Jan-08 14:31N 30°08' W 093°19'0 0.0
2018-Jan-08 14:00N 30°08' W 093°19'0 0.0
2018-Jan-08 13:31N 30°08' W 093°19'0 0.0
2018-Jan-08 13:00N 30°08' W 093°19'0 0.0
2018-Jan-08 12:31N 30°08' W 093°19'0 0.0
2018-Jan-08 12:01N 30°08' W 093°19'0 0.0
2018-Jan-08 11:31N 30°08' W 093°19'0 0.0
2018-Jan-08 11:01N 30°08' W 093°19'0 0.0
2018-Jan-08 10:31N 30°08' W 093°19'0 0.0
2018-Jan-08 10:01N 30°08' W 093°19'0 0.0
2018-Jan-08 09:30N 30°08' W 093°19'0 0.0
2018-Jan-08 09:01N 30°08' W 093°19'0 0.0
2018-Jan-08 08:30N 30°08' W 093°19'0 0.0
2018-Jan-08 08:01N 30°08' W 093°19'0 0.0
2018-Jan-08 07:30N 30°08' W 093°19'0 0.0
2018-Jan-08 07:00N 30°08' W 093°19'0 0.0
2018-Jan-08 06:30N 30°08' W 093°19'0 0.0
2018-Jan-08 06:01N 30°08' W 093°19'0 0.0
2018-Jan-08 05:30N 30°08' W 093°19'0 0.0
2018-Jan-08 05:01N 30°08' W 093°19'0 0.0
2018-Jan-08 04:30N 30°08' W 093°19'0 0.0
2018-Jan-08 04:00N 30°08' W 093°19'0 0.0
2018-Jan-08 03:31N 30°08' W 093°19'0 0.0
2018-Jan-08 03:00N 30°08' W 093°19'0 0.0
2018-Jan-08 02:30N 30°08' W 093°19'0 0.0
2018-Jan-08 02:01N 30°08' W 093°19'0 0.0
2018-Jan-08 01:31N 30°08' W 093°19'0 0.0
2018-Jan-08 01:01N 30°08' W 093°19'0 0.0
2018-Jan-08 00:30N 30°08' W 093°19'0 0.0
2018-Jan-08 00:00N 30°08' W 093°19'0 0.0
2018-Jan-07 23:30N 30°08' W 093°19'0 0.0
2018-Jan-07 23:00N 30°08' W 093°19'0 0.0
2018-Jan-07 22:31N 30°08' W 093°19'0 0.0
2018-Jan-07 22:01N 30°08' W 093°19'0 0.0
2018-Jan-07 21:30N 30°08' W 093°19'0 0.0
2018-Jan-07 21:01N 30°08' W 093°19'0 0.0
2018-Jan-07 20:30N 30°08' W 093°19'0 0.0
2018-Jan-07 20:01N 30°08' W 093°19'0 0.0
2018-Jan-07 19:30N 30°08' W 093°19'0 0.0
2018-Jan-07 19:01N 30°08' W 093°19'0 0.0
2018-Jan-07 18:31N 30°08' W 093°19'0 0.0
2018-Jan-07 18:00N 30°08' W 093°19'0 0.0
2018-Jan-07 17:30N 30°08' W 093°19'0 0.0
2018-Jan-07 17:01N 30°08' W 093°19'0 0.0
2018-Jan-07 16:30N 30°08' W 093°19'0 0.0
2018-Jan-07 16:01N 30°08' W 093°19'0 0.0
2018-Jan-07 15:30N 30°08' W 093°19'0 0.0
2018-Jan-07 15:00N 30°08' W 093°19'0 0.4
2018-Jan-07 14:30N 30°08' W 093°19'0 0.1
2018-Jan-07 14:01N 30°08' W 093°20'0 0.0
2018-Jan-07 13:31N 30°08' W 093°20'1 1.4
2018-Jan-07 13:00N 30°08' W 093°20'2 3.7
2018-Jan-07 12:30N 30°06' W 093°20'1 2.3
2018-Jan-07 12:00N 30°05' W 093°20'0 0.1
2018-Jan-07 11:31N 30°05' W 093°20'0 0.0
2018-Jan-07 11:00N 30°05' W 093°20'0 0.0
2018-Jan-07 10:31N 30°05' W 093°20'0 0.0
2018-Jan-07 10:01N 30°05' W 093°20'0 0.0
2018-Jan-07 09:30N 30°05' W 093°20'0 0.0
2018-Jan-07 09:00N 30°05' W 093°20'0 0.0
2018-Jan-07 08:30N 30°05' W 093°20'0 0.0
2018-Jan-07 08:00N 30°05' W 093°20'0 0.0
2018-Jan-07 07:30N 30°05' W 093°20'0 0.0
2018-Jan-07 07:00N 30°05' W 093°20'0 0.0
2018-Jan-07 06:30N 30°05' W 093°20'0 0.0
2018-Jan-07 06:00N 30°05' W 093°20'0 0.0
2018-Jan-07 05:30N 30°05' W 093°20'0 0.0
2018-Jan-07 05:00N 30°05' W 093°20'0 0.0
2018-Jan-07 04:30N 30°05' W 093°20'0 0.0
2018-Jan-07 04:01N 30°05' W 093°20'0 0.0
2018-Jan-07 03:30N 30°05' W 093°20'0 0.0
2018-Jan-07 03:00N 30°05' W 093°20'0 0.0
2018-Jan-07 02:31N 30°05' W 093°20'0 0.0
2018-Jan-07 02:00N 30°05' W 093°20'0 0.0
2018-Jan-07 01:31N 30°05' W 093°20'0 0.0
2018-Jan-07 00:30N 30°05' W 093°20'0 0.0
2018-Jan-07 00:00N 30°05' W 093°20'0 0.0
2018-Jan-06 23:30N 30°05' W 093°20'0 0.0
2018-Jan-06 23:00N 30°05' W 093°20'0 0.0
2018-Jan-06 22:30N 30°05' W 093°20'0 0.0
2018-Jan-06 22:00N 30°05' W 093°20'0 0.0
2018-Jan-06 21:31N 30°05' W 093°20'0 0.0
2018-Jan-06 21:01N 30°05' W 093°20'0 0.0
2018-Jan-06 20:30N 30°05' W 093°20'0 0.0
2018-Jan-06 20:00N 30°05' W 093°20'0 0.0
2018-Jan-06 19:30N 30°05' W 093°20'0 0.0
2018-Jan-06 19:00N 30°05' W 093°20'0 0.0
2018-Jan-06 18:30N 30°05' W 093°20'0 0.0
2018-Jan-06 18:00N 30°05' W 093°20'0 0.0
2018-Jan-06 17:30N 30°05' W 093°20'0 0.0
2018-Jan-06 17:01N 30°05' W 093°20'0 0.0
2018-Jan-06 16:30N 30°05' W 093°20'0 0.0
2018-Jan-06 16:01N 30°05' W 093°20'0 0.0
2018-Jan-06 15:30N 30°05' W 093°20'0 0.0
2018-Jan-06 15:00N 30°05' W 093°20'0 0.0
2018-Jan-06 14:30N 30°05' W 093°20'0 0.0
2018-Jan-06 14:00N 30°05' W 093°20'0 0.0
2018-Jan-06 13:30N 30°05' W 093°20'0 0.0
2018-Jan-06 13:00N 30°05' W 093°20'0 0.0
2018-Jan-06 12:31N 30°05' W 093°20'0 0.0
2018-Jan-06 12:00N 30°05' W 093°20'0 0.0
2018-Jan-06 11:30N 30°05' W 093°20'0 0.0
2018-Jan-06 11:00N 30°05' W 093°20'0 0.0
2018-Jan-06 10:30N 30°05' W 093°20'0 0.0
2018-Jan-06 10:00N 30°05' W 093°20'0 0.0
2018-Jan-06 09:30N 30°05' W 093°20'0 0.0
2018-Jan-06 09:01N 30°05' W 093°20'0 0.0
2018-Jan-06 08:30N 30°05' W 093°20'0 0.0
2018-Jan-06 08:00N 30°05' W 093°20'0 0.0
2018-Jan-06 07:30N 30°05' W 093°20'0 0.1
2018-Jan-06 07:00N 30°05' W 093°20'0 0.9
2018-Jan-06 06:31N 30°05' W 093°20'0 0.5
2018-Jan-06 06:01N 30°05' W 093°20'2 3.2
2018-Jan-06 05:31N 30°04' W 093°21'1 2.6
2018-Jan-06 05:00N 30°04' W 093°22'2 3.9
2018-Jan-06 04:30N 30°04' W 093°24'2 5.0
2018-Jan-06 04:00N 30°04' W 093°27'2 3.8
2018-Jan-06 03:30N 30°04' W 093°29'2 4.7
2018-Jan-06 03:00N 30°04' W 093°32'2 4.9
2018-Jan-06 02:30N 30°04' W 093°35'3 5.1
2018-Jan-06 02:00N 30°04' W 093°38'3 6.0
2018-Jan-06 01:26N 30°03' W 093°42'70 2.9
2018-Jan-05 01:43N 29°32' W 094°54'2 5.8
2018-Jan-05 01:19N 29°34' W 094°55'2 6.7
2018-Jan-05 01:00N 29°36' W 094°57'3 6.8
2018-Jan-05 00:30N 29°39' W 094°58'3 6.8
2018-Jan-05 00:00N 29°42' W 094°60'3 5.8
2018-Jan-04 23:28N 29°44' W 095°03'  

Dump ship's entire track history